createdAt,value
2022-07-29T00:01:45.454Z,99516.22
2022-07-29T00:04:14.497Z,99524.31
2022-07-29T00:06:43.370Z,99527.84
2022-07-29T00:09:11.423Z,99507.09
2022-07-29T00:11:39.720Z,99487.09
2022-07-29T00:14:09.255Z,99528.34
2022-07-29T00:16:37.747Z,99527.78
2022-07-29T00:19:05.952Z,99512.50
2022-07-29T00:21:36.136Z,99513.56
2022-07-29T00:24:06.807Z,99516.28
2022-07-29T00:26:35.263Z,99515.50
2022-07-29T00:31:53.483Z,99504.50
2022-07-29T00:34:46.831Z,99500.06
2022-07-29T00:37:14.828Z,99503.31
2022-07-29T00:39:42.936Z,99512.09
2022-07-29T00:42:11.380Z,99505.13
2022-07-29T00:44:41.212Z,99494.25
2022-07-29T00:47:11.449Z,99501.78
2022-07-29T00:49:41.766Z,99501.56
2022-07-29T00:52:11.558Z,99500.91
2022-07-29T00:54:44.338Z,99501.28
2022-07-29T00:57:13.651Z,99502.28
2022-07-29T00:59:41.772Z,99493.22
2022-07-29T01:02:10.988Z,99495.47
2022-07-29T01:04:39.341Z,99493.78
2022-07-29T01:07:08.742Z,99492.50
2022-07-29T01:09:45.368Z,99488.38
2022-07-29T01:12:23.411Z,99492.34
2022-07-29T01:14:54.959Z,99488.97
2022-07-29T01:17:36.859Z,99489.69
2022-07-29T01:20:34.608Z,99488.53
2022-07-29T01:23:09.222Z,99501.75
2022-07-29T01:26:14.572Z,99491.75
2022-07-29T01:28:54.691Z,99492.25
2022-07-29T01:31:33.769Z,99486.78
2022-07-29T01:34:08.141Z,99489.31
2022-07-29T01:36:45.569Z,99477.59
2022-07-29T01:39:21.641Z,99467.19
2022-07-29T01:42:24.351Z,99475.63
2022-07-29T01:45:29.358Z,99477.38
2022-07-29T01:48:19.857Z,99476.59
2022-07-29T01:50:54.119Z,99482.47
2022-07-29T01:53:38.190Z,99484.47
2022-07-29T01:56:10.685Z,99479.94
2022-07-29T01:58:43.281Z,99493.06
2022-07-29T02:01:13.691Z,99502.25
2022-07-29T02:03:48.841Z,99496.97
2022-07-29T02:06:21.189Z,99492.66
2022-07-29T02:08:51.233Z,99495.41
2022-07-29T02:11:19.576Z,99506.22
2022-07-29T02:13:49.683Z,99492.44
2022-07-29T02:16:22.877Z,99499.13
2022-07-29T02:18:55.379Z,99491.38
2022-07-29T02:21:29.000Z,99489.34
2022-07-29T02:23:59.417Z,99485.22
2022-07-29T02:26:29.122Z,99480.59
2022-07-29T02:28:59.487Z,99486.19
2022-07-29T02:31:34.883Z,99488.75
2022-07-29T02:34:10.191Z,99468.78
2022-07-29T02:36:39.830Z,99475.03
2022-07-29T02:39:12.740Z,99481.06
2022-07-29T02:41:43.413Z,99473.88
2022-07-29T02:44:24.455Z,99477.78
2022-07-29T02:47:18.800Z,99480.44
2022-07-29T02:50:10.201Z,99471.38
2022-07-29T02:52:56.706Z,99475.56
2022-07-29T02:55:33.415Z,99478.50
2022-07-29T02:58:07.755Z,99477.19
2022-07-29T03:00:40.388Z,99480.56
2022-07-29T03:03:14.953Z,99474.81
2022-07-29T03:05:43.429Z,99479.94
2022-07-29T03:08:31.359Z,99469.41
2022-07-29T03:10:59.739Z,99479.06
2022-07-29T03:13:29.320Z,99474.03
2022-07-29T03:15:59.414Z,99462.50
2022-07-29T03:18:29.879Z,99469.28
2022-07-29T03:20:57.949Z,99471.00
2022-07-29T03:23:28.672Z,99452.66
2022-07-29T03:26:03.515Z,99469.09
2022-07-29T03:28:31.483Z,99464.31
2022-07-29T03:31:00.124Z,99463.34
2022-07-29T03:33:28.189Z,99450.75
2022-07-29T03:35:56.287Z,99464.28
2022-07-29T03:38:28.624Z,99461.13
2022-07-29T03:41:03.798Z,99450.41
2022-07-29T03:43:49.634Z,99459.66
2022-07-29T03:46:19.576Z,99457.28
2022-07-29T03:48:52.658Z,99439.53
2022-07-29T03:51:40.263Z,99450.09
2022-07-29T03:54:14.091Z,99455.75
2022-07-29T03:56:48.115Z,99453.69
2022-07-29T03:59:20.829Z,99450.47
2022-07-29T04:01:50.793Z,99445.66
2022-07-29T04:04:19.707Z,99454.31
2022-07-29T04:06:49.668Z,99450.28
2022-07-29T04:09:17.737Z,99452.22
2022-07-29T04:12:01.616Z,99446.31
2022-07-29T04:14:36.219Z,99442.81
2022-07-29T04:17:05.625Z,99444.72
2022-07-29T04:19:34.528Z,99437.16
2022-07-29T04:22:05.050Z,99446.66
2022-07-29T04:24:33.103Z,99440.47
2022-07-29T04:27:01.106Z,99434.00
2022-07-29T04:29:29.354Z,99438.31
2022-07-29T04:31:57.369Z,99446.44
2022-07-29T04:34:28.273Z,99442.91
2022-07-29T04:36:59.077Z,99437.53
2022-07-29T04:39:29.689Z,99435.38
2022-07-29T04:41:58.583Z,99428.88
2022-07-29T04:44:29.745Z,99430.22
2022-07-29T04:46:59.235Z,99429.69
2022-07-29T04:49:27.714Z,99432.13
2022-07-29T04:51:57.166Z,99430.41
2022-07-29T04:54:25.564Z,99434.72
2022-07-29T04:56:53.750Z,99427.72
2022-07-29T04:59:22.078Z,99433.03
2022-07-29T05:01:50.225Z,99438.25
2022-07-29T05:04:18.633Z,99428.34
2022-07-29T05:06:49.072Z,99412.75
2022-07-29T05:09:17.108Z,99417.44
2022-07-29T05:11:45.512Z,99405.56
2022-07-29T05:14:14.713Z,99419.31
2022-07-29T05:16:43.554Z,99422.28
2022-07-29T05:19:14.571Z,99407.72
2022-07-29T05:21:45.759Z,99419.59
2022-07-29T05:24:13.909Z,99416.66
2022-07-29T05:26:42.410Z,99405.56
2022-07-29T05:29:44.614Z,99407.69
2022-07-29T05:31:58.939Z,99411.47
2022-07-29T05:34:29.218Z,99390.75
2022-07-29T05:36:57.224Z,99408.56
2022-07-29T05:39:47.271Z,99402.88
2022-07-29T05:42:13.747Z,99404.53
2022-07-29T05:44:42.221Z,99404.31
2022-07-29T05:47:10.298Z,99400.28
2022-07-29T05:49:38.444Z,99409.88
2022-07-29T05:52:24.934Z,99399.00
2022-07-29T05:54:54.083Z,99397.63
2022-07-29T05:57:24.853Z,99391.19
2022-07-29T05:59:53.347Z,99408.63
2022-07-29T06:02:21.761Z,99407.72
2022-07-29T06:04:50.343Z,99395.22
2022-07-29T06:07:18.386Z,99411.47
2022-07-29T06:09:48.118Z,99406.69
2022-07-29T06:12:16.179Z,99404.00
2022-07-29T06:14:44.185Z,99393.72
2022-07-29T06:17:13.395Z,99388.25
2022-07-29T06:19:41.466Z,99404.41
2022-07-29T06:22:11.470Z,99394.50
2022-07-29T06:24:44.143Z,99393.47
2022-07-29T06:27:13.081Z,99381.78
2022-07-29T06:29:41.278Z,99393.09
2022-07-29T06:32:11.197Z,99386.81
2022-07-29T06:34:38.956Z,99387.94
2022-07-29T06:37:15.385Z,99382.59
2022-07-29T06:39:44.920Z,99387.78
2022-07-29T06:42:13.090Z,99387.16
2022-07-29T06:44:41.171Z,99374.19
2022-07-29T06:47:11.784Z,99383.34
2022-07-29T06:49:40.568Z,99390.03
2022-07-29T06:52:08.585Z,99388.03
2022-07-29T06:54:36.640Z,99377.66
2022-07-29T06:57:04.637Z,99378.47
2022-07-29T06:59:35.976Z,99370.41
2022-07-29T07:02:04.650Z,99379.00
2022-07-29T07:04:33.691Z,99376.66
2022-07-29T07:07:01.747Z,99367.25
2022-07-29T07:09:39.798Z,99370.28
2022-07-29T07:12:09.567Z,99372.50
2022-07-29T07:14:37.864Z,99376.56
2022-07-29T07:17:05.971Z,99367.22
2022-07-29T07:19:33.965Z,99371.63
2022-07-29T07:22:02.247Z,99359.53
2022-07-29T07:24:33.175Z,99353.91
2022-07-29T07:27:01.072Z,99372.72
2022-07-29T07:29:29.285Z,99379.81
2022-07-29T07:32:00.753Z,99339.59
2022-07-29T07:34:31.751Z,99373.34
2022-07-29T07:37:01.147Z,99375.03
2022-07-29T07:39:29.197Z,99372.44
2022-07-29T07:41:57.318Z,99365.03
2022-07-29T07:44:25.613Z,99378.88
2022-07-29T07:46:54.711Z,99367.63
2022-07-29T07:49:22.972Z,99384.41
2022-07-29T07:51:51.376Z,99382.97
2022-07-29T07:54:20.832Z,99371.53
2022-07-29T07:56:53.177Z,99381.28
2022-07-29T07:59:21.857Z,99374.84
2022-07-29T08:01:55.803Z,99374.91
2022-07-29T08:04:28.502Z,99372.66
2022-07-29T08:06:59.000Z,99374.97
2022-07-29T08:09:29.836Z,99367.06
2022-07-29T08:12:00.954Z,99367.16
2022-07-29T08:14:29.077Z,99343.56
2022-07-29T08:16:57.311Z,99358.56
2022-07-29T08:19:25.597Z,99351.91
2022-07-29T08:21:55.254Z,99354.63
2022-07-29T08:24:43.825Z,99356.06
2022-07-29T08:27:40.644Z,99343.72
2022-07-29T08:30:03.360Z,99352.50
2022-07-29T08:32:52.658Z,99348.84
2022-07-29T08:35:26.905Z,99351.31
2022-07-29T08:37:56.356Z,99344.81
2022-07-29T08:40:30.473Z,99348.81
2022-07-29T08:43:09.898Z,99337.66
2022-07-29T08:45:48.112Z,99346.44
2022-07-29T08:48:23.129Z,99342.13
2022-07-29T08:50:57.121Z,99347.00
2022-07-29T08:53:28.714Z,99345.16
2022-07-29T08:55:58.794Z,99328.47
2022-07-29T08:58:28.880Z,99337.22
2022-07-29T09:01:16.849Z,99340.50
2022-07-29T09:03:48.916Z,99345.47
2022-07-29T09:06:19.932Z,99344.75
2022-07-29T09:08:50.128Z,99343.19
2022-07-29T09:11:18.295Z,99338.59
2022-07-29T09:13:46.541Z,99333.78
2022-07-29T09:16:26.715Z,99328.91
2022-07-29T09:19:02.955Z,99336.97
2022-07-29T09:22:05.199Z,99339.97
2022-07-29T09:24:49.034Z,99335.44
2022-07-29T09:27:28.361Z,99333.81
2022-07-29T09:30:01.664Z,99336.81
2022-07-29T09:32:32.289Z,99318.50
2022-07-29T09:35:23.732Z,99314.00
2022-07-29T09:37:52.743Z,99333.47
2022-07-29T09:40:23.811Z,99323.28
2022-07-29T09:42:53.520Z,99329.09
2022-07-29T09:45:36.984Z,99330.78
2022-07-29T09:48:20.547Z,99327.31
2022-07-29T09:50:51.244Z,99343.41
2022-07-29T09:53:41.798Z,99343.81
2022-07-29T09:56:12.269Z,99348.59
2022-07-29T09:58:40.618Z,99357.56
2022-07-29T10:01:09.829Z,99347.53
2022-07-29T10:03:55.044Z,99352.09
2022-07-29T10:06:25.598Z,99332.41
2022-07-29T10:08:54.137Z,99348.25
2022-07-29T10:11:22.557Z,99351.41
2022-07-29T10:13:52.902Z,99347.88
2022-07-29T10:16:21.256Z,99347.00
2022-07-29T10:18:49.484Z,99346.69
2022-07-29T10:21:35.082Z,99346.38
2022-07-29T10:24:05.779Z,99350.41
2022-07-29T10:26:35.142Z,99349.00
2022-07-29T10:29:03.397Z,99351.13
2022-07-29T10:31:44.519Z,99366.13
2022-07-29T10:34:46.871Z,99364.00
2022-07-29T10:37:36.780Z,99361.44
2022-07-29T10:40:50.956Z,99346.53
2022-07-29T10:43:31.934Z,99353.28
2022-07-29T10:46:02.263Z,99342.19
2022-07-29T10:48:31.130Z,99330.44
2022-07-29T10:51:04.998Z,99334.13
2022-07-29T10:53:54.702Z,99334.00
2022-07-29T10:56:38.162Z,99334.19
2022-07-29T10:59:22.747Z,99332.06
2022-07-29T11:01:56.703Z,99319.97
2022-07-29T11:04:47.216Z,99333.53
2022-07-29T11:07:19.141Z,99331.72
2022-07-29T11:10:13.029Z,99334.91
2022-07-29T11:12:45.364Z,99339.22
2022-07-29T11:15:22.645Z,99352.63
2022-07-29T11:18:17.415Z,99341.84
2022-07-29T11:20:51.973Z,99353.25
2022-07-29T11:23:33.737Z,99343.50
2022-07-29T11:26:12.881Z,99337.56
2022-07-29T11:29:04.979Z,99343.94
2022-07-29T11:31:44.913Z,99339.81
2022-07-29T11:34:22.916Z,99326.81
2022-07-29T11:37:11.374Z,99333.34
2022-07-29T11:39:43.880Z,99343.22
2022-07-29T11:42:28.512Z,99338.34
2022-07-29T11:45:41.271Z,99342.97
2022-07-29T11:50:48.555Z,99351.81
2022-07-29T11:53:17.157Z,99339.13
2022-07-29T11:55:50.938Z,99345.28
2022-07-29T11:58:25.246Z,99343.31
2022-07-29T12:00:55.253Z,99314.06
2022-07-29T12:03:32.834Z,99346.72
2022-07-29T12:06:04.588Z,99343.69
2022-07-29T12:08:44.498Z,99342.66
2022-07-29T12:11:22.479Z,99339.81
2022-07-29T12:13:53.886Z,99338.50
2022-07-29T12:16:25.732Z,99330.78
2022-07-29T12:19:04.340Z,99329.16
2022-07-29T12:21:56.861Z,99324.38
2022-07-29T12:24:29.527Z,99323.16
2022-07-29T12:26:58.434Z,99330.78
2022-07-29T12:29:33.996Z,99324.69
2022-07-29T12:32:14.568Z,99337.94
2022-07-29T12:34:45.138Z,99322.16
2022-07-29T12:37:13.461Z,99320.88
2022-07-29T12:39:41.918Z,99325.50
2022-07-29T12:42:18.763Z,99322.56
2022-07-29T12:47:53.806Z,99331.44
2022-07-29T12:50:26.570Z,99333.03
2022-07-29T12:52:55.298Z,99331.66
2022-07-29T12:55:44.401Z,99333.84
2022-07-29T12:58:12.704Z,99338.16
2022-07-29T13:00:40.863Z,99335.72
2022-07-29T13:03:10.012Z,99346.69
2022-07-29T13:05:48.831Z,99338.59
2022-07-29T13:08:23.020Z,99338.81
2022-07-29T13:10:51.523Z,99344.09
2022-07-29T13:13:19.567Z,99334.38
2022-07-29T13:15:51.475Z,99339.97
2022-07-29T13:18:39.754Z,99334.84
2022-07-29T13:21:18.732Z,99329.75
2022-07-29T13:23:47.310Z,99343.13
2022-07-29T13:26:18.015Z,99344.69
2022-07-29T13:28:48.339Z,99319.75
2022-07-29T13:31:16.466Z,99348.56
2022-07-29T13:33:44.532Z,99350.84
2022-07-29T13:36:12.828Z,99359.63
2022-07-29T13:38:40.783Z,99352.59
2022-07-29T13:41:08.928Z,99352.38
2022-07-29T13:43:37.082Z,99359.25
2022-07-29T13:46:05.223Z,99357.75
2022-07-29T13:48:33.384Z,99373.16
2022-07-29T13:51:01.572Z,99355.84
2022-07-29T13:53:30.229Z,99357.88
2022-07-29T13:55:58.341Z,99360.78
2022-07-29T13:58:26.701Z,99370.00
2022-07-29T14:00:54.854Z,99364.66
2022-07-29T14:03:23.045Z,99362.94
2022-07-29T14:05:51.910Z,99370.97
2022-07-29T14:08:20.308Z,99375.75
2022-07-29T14:10:49.596Z,99375.16
2022-07-29T14:13:25.348Z,99373.19
2022-07-29T14:15:55.096Z,99368.19
2022-07-29T14:18:23.280Z,99368.91
2022-07-29T14:20:53.522Z,99370.78
2022-07-29T14:26:08.771Z,99371.03
2022-07-29T14:28:42.042Z,99357.44
2022-07-29T14:31:10.148Z,99376.50
2022-07-29T14:33:39.278Z,99373.47
2022-07-29T14:36:09.435Z,99342.91
2022-07-29T14:38:39.197Z,99370.44
2022-07-29T14:41:09.149Z,99369.41
2022-07-29T14:43:37.454Z,99370.69
2022-07-29T14:46:08.431Z,99381.84
2022-07-29T14:48:37.825Z,99371.16
2022-07-29T14:51:06.097Z,99357.22
2022-07-29T14:53:34.476Z,99360.47
2022-07-29T14:56:20.891Z,99370.22
2022-07-29T14:59:09.572Z,99375.34
2022-07-29T15:01:37.950Z,99366.03
2022-07-29T15:04:06.349Z,99352.09
2022-07-29T15:06:34.665Z,99386.63
2022-07-29T15:09:02.997Z,99390.34
2022-07-29T15:11:37.870Z,99383.00
2022-07-29T15:14:10.126Z,99383.72
2022-07-29T15:16:40.114Z,99395.44
2022-07-29T15:19:12.721Z,99398.34
2022-07-29T15:21:48.436Z,99382.06
2022-07-29T15:24:18.894Z,99381.50
2022-07-29T15:26:48.757Z,99381.38
2022-07-29T15:29:17.055Z,99362.97
2022-07-29T15:31:45.657Z,99376.16
2022-07-29T15:34:13.985Z,99385.56
2022-07-29T15:36:57.580Z,99371.94
2022-07-29T15:39:27.100Z,99386.91
2022-07-29T15:41:55.399Z,99392.72
2022-07-29T15:44:23.944Z,99397.50
2022-07-29T15:47:04.544Z,99394.66
2022-07-29T15:49:48.725Z,99386.88
2022-07-29T15:52:26.251Z,99397.91
2022-07-29T15:54:57.092Z,99401.03
2022-07-29T15:57:25.889Z,99400.22
2022-07-29T15:59:56.195Z,99403.38
2022-07-29T16:02:24.423Z,99400.66
2022-07-29T16:04:52.686Z,99399.28
2022-07-29T16:07:21.083Z,99411.00
2022-07-29T16:09:52.961Z,99403.06
2022-07-29T16:12:21.983Z,99395.75
2022-07-29T16:15:13.373Z,99403.63
2022-07-29T16:17:41.209Z,99395.44
2022-07-29T16:20:09.942Z,99401.34
2022-07-29T16:22:41.062Z,99407.13
2022-07-29T16:25:09.772Z,99408.03
2022-07-29T16:27:38.490Z,99403.00
2022-07-29T16:30:14.063Z,99413.09
2022-07-29T16:32:42.057Z,99407.84
2022-07-29T16:35:10.672Z,99399.06
2022-07-29T16:37:40.175Z,99402.84
2022-07-29T16:40:11.643Z,99403.34
2022-07-29T16:42:47.890Z,99406.69
2022-07-29T16:45:21.446Z,99402.03
2022-07-29T16:47:49.991Z,99396.09
2022-07-29T16:50:18.289Z,99394.91
2022-07-29T16:52:50.253Z,99396.41
2022-07-29T16:55:18.348Z,99389.78
2022-07-29T16:57:47.589Z,99401.22
2022-07-29T17:00:18.257Z,99394.69
2022-07-29T17:02:46.619Z,99395.97
2022-07-29T17:05:16.356Z,99388.13
2022-07-29T17:07:44.787Z,99387.38
2022-07-29T17:10:12.951Z,99365.53
2022-07-29T17:12:42.368Z,99388.63
2022-07-29T17:15:14.316Z,99378.59
2022-07-29T17:17:56.475Z,99392.84
2022-07-29T17:20:28.904Z,99390.78
2022-07-29T17:22:57.642Z,99376.84
2022-07-29T17:25:25.695Z,99397.16
2022-07-29T17:28:00.561Z,99376.84
2022-07-29T17:30:30.839Z,99377.28
2022-07-29T17:32:58.972Z,99376.19
2022-07-29T17:35:45.223Z,99379.00
2022-07-29T17:38:16.717Z,99379.81
2022-07-29T17:40:44.770Z,99370.56
2022-07-29T17:43:12.786Z,99374.06
2022-07-29T17:45:50.382Z,99378.78
2022-07-29T17:48:20.222Z,99369.59
2022-07-29T17:50:50.221Z,99367.16
2022-07-29T17:53:17.953Z,99370.88
2022-07-29T17:55:49.275Z,99371.53
2022-07-29T17:58:19.150Z,99365.59
2022-07-29T18:00:47.354Z,99356.78
2022-07-29T18:03:16.672Z,99361.09
2022-07-29T18:05:46.314Z,99353.91
2022-07-29T18:08:14.549Z,99349.59
2022-07-29T18:10:42.561Z,99351.69
2022-07-29T18:13:13.343Z,99351.53
2022-07-29T18:15:41.813Z,99347.00
2022-07-29T18:18:10.459Z,99348.84
2022-07-29T18:20:40.079Z,99323.34
2022-07-29T18:23:08.214Z,99342.97
2022-07-29T18:25:36.435Z,99354.50
2022-07-29T18:28:05.944Z,99346.13
2022-07-29T18:30:35.105Z,99344.94
2022-07-29T18:33:21.401Z,99332.69
2022-07-29T18:36:11.236Z,99344.16
2022-07-29T18:38:42.034Z,99343.41
2022-07-29T18:41:11.094Z,99347.09
2022-07-29T18:43:39.233Z,99329.59
2022-07-29T18:46:07.445Z,99337.53
2022-07-29T18:48:38.124Z,99341.00
2022-07-29T18:51:09.449Z,99330.56
2022-07-29T18:53:38.415Z,99317.09
2022-07-29T18:56:09.647Z,99323.81
2022-07-29T18:58:39.059Z,99324.03
2022-07-29T19:01:31.659Z,99325.06
2022-07-29T19:04:01.026Z,99319.75
2022-07-29T19:06:29.084Z,99319.16
2022-07-29T19:08:57.399Z,99304.06
2022-07-29T19:11:25.484Z,99271.84
2022-07-29T19:13:53.525Z,99318.59
2022-07-29T19:16:23.138Z,99313.94
2022-07-29T19:18:51.171Z,99315.63
2022-07-29T19:21:20.056Z,99292.16
2022-07-29T19:24:03.820Z,99301.34
2022-07-29T19:26:44.585Z,99309.94
2022-07-29T19:29:14.279Z,99299.13
2022-07-29T19:31:43.531Z,99288.13
2022-07-29T19:34:11.661Z,99309.59
2022-07-29T19:36:41.135Z,99312.69
2022-07-29T19:39:09.066Z,99305.34
2022-07-29T19:41:37.341Z,99300.25
2022-07-29T19:44:07.307Z,99289.84
2022-07-29T19:46:35.110Z,99302.94
2022-07-29T19:49:03.219Z,99286.84
2022-07-29T19:51:31.269Z,99306.28
2022-07-29T19:53:59.271Z,99308.75
2022-07-29T19:56:30.354Z,99313.66
2022-07-29T19:59:00.177Z,99309.56
2022-07-29T20:01:30.059Z,99314.91
2022-07-29T20:03:58.075Z,99306.53
2022-07-29T20:06:26.199Z,99306.97
2022-07-29T20:08:58.274Z,99305.34
2022-07-29T20:11:27.363Z,99320.06
2022-07-29T20:13:55.419Z,99310.06
2022-07-29T20:16:25.439Z,99303.56
2022-07-29T20:18:57.451Z,99316.81
2022-07-29T20:21:27.425Z,99319.91
2022-07-29T20:23:57.566Z,99316.03
2022-07-29T20:26:27.197Z,99309.72
2022-07-29T20:28:55.284Z,99318.94
2022-07-29T20:31:23.353Z,99312.19
2022-07-29T20:33:51.739Z,99312.41
2022-07-29T20:36:19.768Z,99309.75
2022-07-29T20:38:47.851Z,99318.94
2022-07-29T20:41:15.995Z,99316.06
2022-07-29T20:43:44.406Z,99316.69
2022-07-29T20:46:12.559Z,99300.78
2022-07-29T20:48:42.349Z,99315.28
2022-07-29T20:51:10.487Z,99302.22
2022-07-29T20:53:40.476Z,99321.00
2022-07-29T20:56:08.438Z,99314.88
2022-07-29T20:58:37.175Z,99308.34
2022-07-29T21:01:05.746Z,99301.00
2022-07-29T21:03:35.176Z,99297.13
2022-07-29T21:06:03.435Z,99301.81
2022-07-29T21:08:31.699Z,99300.19
2022-07-29T21:10:59.882Z,99222.16
2022-07-29T21:13:28.299Z,99287.53
2022-07-29T21:16:03.429Z,99301.81
2022-07-29T21:18:39.112Z,99289.97
2022-07-29T21:21:08.874Z,99285.88
2022-07-29T21:23:36.893Z,99282.44
2022-07-29T21:26:08.703Z,99273.59
2022-07-29T21:28:41.401Z,99271.72
2022-07-29T21:31:18.426Z,99280.91
2022-07-29T21:33:48.252Z,99283.97
2022-07-29T21:39:09.271Z,99275.41
2022-07-29T21:41:37.367Z,99269.50
2022-07-29T21:44:05.426Z,99265.00
2022-07-29T21:46:35.219Z,99273.16
2022-07-29T21:49:03.230Z,99280.31
2022-07-29T21:51:31.406Z,99267.25
2022-07-29T21:54:01.110Z,99277.44
2022-07-29T21:56:30.520Z,99276.63
2022-07-29T21:58:59.321Z,99275.59
2022-07-29T22:01:27.507Z,99262.13
2022-07-29T22:03:55.554Z,99283.94
2022-07-29T22:06:23.575Z,99274.34
2022-07-29T22:08:52.713Z,99272.88
2022-07-29T22:11:21.141Z,99272.44
2022-07-29T22:13:49.207Z,99277.16
2022-07-29T22:16:19.077Z,99279.22
2022-07-29T22:18:49.036Z,99276.78
2022-07-29T22:21:17.274Z,99255.31
2022-07-29T22:23:46.931Z,99273.50
2022-07-29T22:26:15.007Z,99272.63
2022-07-29T22:28:43.085Z,99288.97
2022-07-29T22:31:13.164Z,99284.25
2022-07-29T22:33:41.196Z,99285.50
2022-07-29T22:36:09.332Z,99280.38
2022-07-29T22:38:37.591Z,99266.72
2022-07-29T22:41:05.670Z,99275.91
2022-07-29T22:43:33.704Z,99280.78
2022-07-29T22:46:02.059Z,99278.53
2022-07-29T22:48:30.141Z,99273.19
2022-07-29T22:50:58.241Z,99276.44
2022-07-29T22:53:28.127Z,99272.78
2022-07-29T22:55:56.085Z,99276.47
2022-07-29T22:58:24.185Z,99270.75
2022-07-29T23:00:52.520Z,99266.91
2022-07-29T23:03:21.259Z,99276.09
2022-07-29T23:05:51.426Z,99273.03
2022-07-29T23:08:20.148Z,99263.88
2022-07-29T23:10:48.454Z,99274.47
2022-07-29T23:13:16.516Z,99264.34
2022-07-29T23:15:45.666Z,99259.81
2022-07-29T23:18:13.754Z,99265.75
2022-07-29T23:20:43.958Z,99267.19
2022-07-29T23:23:12.058Z,99271.91
2022-07-29T23:25:40.123Z,99258.03
2022-07-29T23:28:11.676Z,99267.84
2022-07-29T23:30:43.570Z,99273.56
2022-07-29T23:33:11.651Z,99272.22
2022-07-29T23:35:39.697Z,99274.88
2022-07-29T23:38:08.710Z,99291.00
2022-07-29T23:40:36.724Z,99284.47
2022-07-29T23:43:08.495Z,99289.16
2022-07-29T23:45:44.822Z,99292.63
2022-07-29T23:48:13.748Z,99297.31
2022-07-29T23:50:41.766Z,99296.31
2022-07-29T23:53:09.962Z,99292.63
2022-07-29T23:55:39.382Z,99301.63
2022-07-29T23:58:07.669Z,99288.75
